Terminal Aerodrome Forecast
Issued by NWS Albany, NY

Home | Current Version | Previous Version | Text Only | Print | Product List | Glossary On
Versions: 1 2 3 4 5 6 7 8 9 10 11 12 13 14 15 16 17 18 19 20 21 22 23 24 25 26 27 28 29 30 31 32 33 34 35 36 37 38 39 40
000
FTUS41 KALY 031123
TAFGFL
TAF
KGFL 031123Z 0312/0412 13002KT P6SM BKN035 OVC090
      TEMPO 0312/0316 BKN030
     FM031600 24009KT P6SM VCSH BKN040
     FM032300 27010KT P6SM -RA OVC035
     FM040500 22004KT 3SM BR SCT250=

USA.gov is the U.S. government's official web portal to all federal, state and local government web resources and services.